sensor_id;sensor_type;location;lat;lon;timestamp;temperature;humidity
64493;DHT22;50868;24.150;-110.320;2023-06-14T00:02:12;36.60;75.40
64493;DHT22;50868;24.150;-110.320;2023-06-14T00:04:39;36.60;75.40
64493;DHT22;50868;24.150;-110.320;2023-06-14T00:07:08;36.40;75.20
64493;DHT22;50868;24.150;-110.320;2023-06-14T00:09:35;37.10;73.90
64493;DHT22;50868;24.150;-110.320;2023-06-14T00:12:02;35.90;76.00
64493;DHT22;50868;24.150;-110.320;2023-06-14T00:14:30;35.10;77.40
64493;DHT22;50868;24.150;-110.320;2023-06-14T00:16:57;33.90;81.40
64493;DHT22;50868;24.150;-110.320;2023-06-14T00:19:25;32.40;87.90
64493;DHT22;50868;24.150;-110.320;2023-06-14T00:21:53;31.80;90.00
64493;DHT22;50868;24.150;-110.320;2023-06-14T00:24:20;31.50;91.20
64493;DHT22;50868;24.150;-110.320;2023-06-14T00:26:47;32.00;90.60
64493;DHT22;50868;24.150;-110.320;2023-06-14T00:29:15;31.40;90.00
64493;DHT22;50868;24.150;-110.320;2023-06-14T00:31:42;31.60;88.70
64493;DHT22;50868;24.150;-110.320;2023-06-14T00:34:09;31.70;87.80
64493;DHT22;50868;24.150;-110.320;2023-06-14T00:36:36;32.50;86.00
64493;DHT22;50868;24.150;-110.320;2023-06-14T00:39:03;32.40;85.10
64493;DHT22;50868;24.150;-110.320;2023-06-14T00:41:30;32.10;86.80
64493;DHT22;50868;24.150;-110.320;2023-06-14T00:43:57;32.40;87.20
64493;DHT22;50868;24.150;-110.320;2023-06-14T00:46:26;32.00;87.60
64493;DHT22;50868;24.150;-110.320;2023-06-14T00:48:54;32.20;88.30
64493;DHT22;50868;24.150;-110.320;2023-06-14T00:51:22;32.80;86.80
64493;DHT22;50868;24.150;-110.320;2023-06-14T00:53:50;33.60;85.30
64493;DHT22;50868;24.150;-110.320;2023-06-14T00:56:18;34.40;81.70
64493;DHT22;50868;24.150;-110.320;2023-06-14T00:58:47;35.10;79.30
64493;DHT22;50868;24.150;-110.320;2023-06-14T01:01:16;34.90;79.40
64493;DHT22;50868;24.150;-110.320;2023-06-14T01:03:43;34.60;79.80
64493;DHT22;50868;24.150;-110.320;2023-06-14T01:06:19;34.40;79.20
64493;DHT22;50868;24.150;-110.320;2023-06-14T01:12:33;33.70;79.20
64493;DHT22;50868;24.150;-110.320;2023-06-14T01:15:00;32.70;83.10
64493;DHT22;50868;24.150;-110.320;2023-06-14T01:17:28;32.60;84.00
64493;DHT22;50868;24.150;-110.320;2023-06-14T01:20:07;32.80;82.20
64493;DHT22;50868;24.150;-110.320;2023-06-14T01:22:36;33.20;81.40
64493;DHT22;50868;24.150;-110.320;2023-06-14T01:25:04;34.00;79.70
64493;DHT22;50868;24.150;-110.320;2023-06-14T01:27:31;34.20;78.70
64493;DHT22;50868;24.150;-110.320;2023-06-14T01:29:59;33.80;79.70
64493;DHT22;50868;24.150;-110.320;2023-06-14T01:32:30;33.40;79.90
64493;DHT22;50868;24.150;-110.320;2023-06-14T01:34:57;33.70;79.20
64493;DHT22;50868;24.150;-110.320;2023-06-14T01:37:24;34.20;77.80
64493;DHT22;50868;24.150;-110.320;2023-06-14T01:39:51;33.00;79.40
64493;DHT22;50868;24.150;-110.320;2023-06-14T01:42:20;31.50;83.40
64493;DHT22;50868;24.150;-110.320;2023-06-14T01:44:48;30.40;87.10
64493;DHT22;50868;24.150;-110.320;2023-06-14T01:47:16;30.30;87.00
64493;DHT22;50868;24.150;-110.320;2023-06-14T01:49:44;30.30;87.20
64493;DHT22;50868;24.150;-110.320;2023-06-14T01:52:12;31.00;86.30
64493;DHT22;50868;24.150;-110.320;2023-06-14T01:54:40;31.90;83.50
64493;DHT22;50868;24.150;-110.320;2023-06-14T01:57:08;32.00;81.80
64493;DHT22;50868;24.150;-110.320;2023-06-14T01:59:37;31.40;82.30
64493;DHT22;50868;24.150;-110.320;2023-06-14T02:02:04;31.00;83.20
64493;DHT22;50868;24.150;-110.320;2023-06-14T02:04:31;30.60;83.70
64493;DHT22;50868;24.150;-110.320;2023-06-14T02:06:58;30.40;84.60
64493;DHT22;50868;24.150;-110.320;2023-06-14T02:09:25;30.20;84.70
64493;DHT22;50868;24.150;-110.320;2023-06-14T02:11:52;30.10;84.50
64493;DHT22;50868;24.150;-110.320;2023-06-14T02:14:20;29.90;84.10
64493;DHT22;50868;24.150;-110.320;2023-06-14T02:16:47;29.70;83.50
64493;DHT22;50868;24.150;-110.320;2023-06-14T02:19:18;29.70;83.00
64493;DHT22;50868;24.150;-110.320;2023-06-14T02:21:46;29.50;84.70
64493;DHT22;50868;24.150;-110.320;2023-06-14T02:24:13;29.00;90.20
64493;DHT22;50868;24.150;-110.320;2023-06-14T02:26:41;28.70;91.70
64493;DHT22;50868;24.150;-110.320;2023-06-14T02:29:08;28.70;92.30
64493;DHT22;50868;24.150;-110.320;2023-06-14T02:31:38;28.60;93.70
64493;DHT22;50868;24.150;-110.320;2023-06-14T02:34:06;28.30;95.20
64493;DHT22;50868;24.150;-110.320;2023-06-14T02:36:35;28.00;96.10
64493;DHT22;50868;24.150;-110.320;2023-06-14T02:39:08;27.90;95.10
64493;DHT22;50868;24.150;-110.320;2023-06-14T02:41:37;28.00;94.10
64493;DHT22;50868;24.150;-110.320;2023-06-14T02:44:04;28.10;94.60
64493;DHT22;50868;24.150;-110.320;2023-06-14T02:46:31;28.20;94.30
64493;DHT22;50868;24.150;-110.320;2023-06-14T02:48:59;28.20;94.10
64493;DHT22;50868;24.150;-110.320;2023-06-14T02:51:26;28.20;94.70
64493;DHT22;50868;24.150;-110.320;2023-06-14T02:53:53;28.10;94.80
64493;DHT22;50868;24.150;-110.320;2023-06-14T02:56:20;28.10;95.20
64493;DHT22;50868;24.150;-110.320;2023-06-14T02:58:49;28.00;94.90
64493;DHT22;50868;24.150;-110.320;2023-06-14T03:01:17;27.90;95.20
64493;DHT22;50868;24.150;-110.320;2023-06-14T03:03:44;27.80;95.60
64493;DHT22;50868;24.150;-110.320;2023-06-14T03:06:11;27.90;95.50
64493;DHT22;50868;24.150;-110.320;2023-06-14T03:08:40;27.90;95.50
64493;DHT22;50868;24.150;-110.320;2023-06-14T03:11:08;27.90;95.40
64493;DHT22;50868;24.150;-110.320;2023-06-14T03:13:35;27.90;95.60
64493;DHT22;50868;24.150;-110.320;2023-06-14T03:16:04;27.80;95.50
64493;DHT22;50868;24.150;-110.320;2023-06-14T03:18:31;27.80;95.40
64493;DHT22;50868;24.150;-110.320;2023-06-14T03:21:02;27.80;94.90
64493;DHT22;50868;24.150;-110.320;2023-06-14T03:23:29;27.80;95.00
64493;DHT22;50868;24.150;-110.320;2023-06-14T03:25:56;27.70;95.30
64493;DHT22;50868;24.150;-110.320;2023-06-14T03:28:24;27.80;95.20
64493;DHT22;50868;24.150;-110.320;2023-06-14T03:30:52;27.60;96.10
64493;DHT22;50868;24.150;-110.320;2023-06-14T03:33:19;27.50;96.10
64493;DHT22;50868;24.150;-110.320;2023-06-14T03:35:50;27.50;96.60
64493;DHT22;50868;24.150;-110.320;2023-06-14T03:38:17;27.60;96.30
64493;DHT22;50868;24.150;-110.320;2023-06-14T03:40:44;27.70;96.10
64493;DHT22;50868;24.150;-110.320;2023-06-14T03:43:11;27.70;96.30
64493;DHT22;50868;24.150;-110.320;2023-06-14T03:45:38;27.70;96.70
64493;DHT22;50868;24.150;-110.320;2023-06-14T03:48:08;27.60;96.70
64493;DHT22;50868;24.150;-110.320;2023-06-14T03:50:36;27.70;96.80
64493;DHT22;50868;24.150;-110.320;2023-06-14T03:53:06;27.60;97.00
64493;DHT22;50868;24.150;-110.320;2023-06-14T03:55:33;27.60;97.50
64493;DHT22;50868;24.150;-110.320;2023-06-14T03:58:01;27.40;98.90
64493;DHT22;50868;24.150;-110.320;2023-06-14T04:00:28;27.30;98.90
64493;DHT22;50868;24.150;-110.320;2023-06-14T04:02:55;27.50;98.50
64493;DHT22;50868;24.150;-110.320;2023-06-14T04:05:22;27.40;99.50
64493;DHT22;50868;24.150;-110.320;2023-06-14T04:07:52;27.40;99.90
64493;DHT22;50868;24.150;-110.320;2023-06-14T04:10:22;27.30;99.90
64493;DHT22;50868;24.150;-110.320;2023-06-14T04:12:49;27.30;99.90
64493;DHT22;50868;24.150;-110.320;2023-06-14T04:15:17;27.20;99.90
64493;DHT22;50868;24.150;-110.320;2023-06-14T04:17:44;27.20;99.90
64493;DHT22;50868;24.150;-110.320;2023-06-14T04:20:11;27.20;99.90
64493;DHT22;50868;24.150;-110.320;2023-06-14T04:22:38;27.20;99.90
64493;DHT22;50868;24.150;-110.320;2023-06-14T04:25:05;27.30;99.90
64493;DHT22;50868;24.150;-110.320;2023-06-14T04:27:32;27.30;99.90
64493;DHT22;50868;24.150;-110.320;2023-06-14T04:30:03;27.20;99.90
64493;DHT22;50868;24.150;-110.320;2023-06-14T04:32:30;27.20;99.90
64493;DHT22;50868;24.150;-110.320;2023-06-14T04:35:00;27.20;99.90
64493;DHT22;50868;24.150;-110.320;2023-06-14T04:37:30;27.20;99.90
64493;DHT22;50868;24.150;-110.320;2023-06-14T04:39:57;27.00;99.90
64493;DHT22;50868;24.150;-110.320;2023-06-14T04:42:24;27.10;99.90
64493;DHT22;50868;24.150;-110.320;2023-06-14T04:44:57;27.00;99.90
64493;DHT22;50868;24.150;-110.320;2023-06-14T04:47:25;27.00;99.90
64493;DHT22;50868;24.150;-110.320;2023-06-14T04:49:57;27.00;99.90
64493;DHT22;50868;24.150;-110.320;2023-06-14T04:52:24;27.00;99.90
64493;DHT22;50868;24.150;-110.320;2023-06-14T04:54:53;27.00;99.90
64493;DHT22;50868;24.150;-110.320;2023-06-14T04:57:20;26.90;99.90
64493;DHT22;50868;24.150;-110.320;2023-06-14T04:59:49;26.90;99.90
64493;DHT22;50868;24.150;-110.320;2023-06-14T05:02:25;27.00;99.90
64493;DHT22;50868;24.150;-110.320;2023-06-14T05:04:52;27.00;99.90
64493;DHT22;50868;24.150;-110.320;2023-06-14T05:07:20;27.00;99.90
64493;DHT22;50868;24.150;-110.320;2023-06-14T05:09:50;26.90;99.30
64493;DHT22;50868;24.150;-110.320;2023-06-14T05:12:17;26.80;95.40
64493;DHT22;50868;24.150;-110.320;2023-06-14T05:14:47;26.90;93.10
64493;DHT22;50868;24.150;-110.320;2023-06-14T05:17:14;26.80;88.20
64493;DHT22;50868;24.150;-110.320;2023-06-14T05:19:43;26.80;88.20
64493;DHT22;50868;24.150;-110.320;2023-06-14T05:22:11;26.70;86.20
64493;DHT22;50868;24.150;-110.320;2023-06-14T05:24:38;26.80;83.40
64493;DHT22;50868;24.150;-110.320;2023-06-14T05:27:05;26.90;80.80
64493;DHT22;50868;24.150;-110.320;2023-06-14T05:29:33;26.90;80.40
64493;DHT22;50868;24.150;-110.320;2023-06-14T05:32:00;26.90;79.60
64493;DHT22;50868;24.150;-110.320;2023-06-14T05:34:27;26.90;79.20
64493;DHT22;50868;24.150;-110.320;2023-06-14T05:36:54;26.90;78.10
64493;DHT22;50868;24.150;-110.320;2023-06-14T05:39:21;26.90;78.10
64493;DHT22;50868;24.150;-110.320;2023-06-14T05:41:50;26.90;78.10
64493;DHT22;50868;24.150;-110.320;2023-06-14T05:44:17;26.70;79.70
64493;DHT22;50868;24.150;-110.320;2023-06-14T05:46:45;26.60;79.90
64493;DHT22;50868;24.150;-110.320;2023-06-14T05:49:12;26.60;79.80
64493;DHT22;50868;24.150;-110.320;2023-06-14T05:51:39;26.50;79.80
64493;DHT22;50868;24.150;-110.320;2023-06-14T05:54:06;26.60;79.40
64493;DHT22;50868;24.150;-110.320;2023-06-14T05:56:33;26.50;79.70
64493;DHT22;50868;24.150;-110.320;2023-06-14T05:59:01;26.50;79.60
64493;DHT22;50868;24.150;-110.320;2023-06-14T06:01:28;26.50;79.50
64493;DHT22;50868;24.150;-110.320;2023-06-14T06:03:57;26.40;79.50
64493;DHT22;50868;24.150;-110.320;2023-06-14T06:06:24;26.30;80.20
64493;DHT22;50868;24.150;-110.320;2023-06-14T06:08:51;26.30;79.60
64493;DHT22;50868;24.150;-110.320;2023-06-14T06:11:18;26.40;79.60
64493;DHT22;50868;24.150;-110.320;2023-06-14T06:13:46;26.30;79.90
64493;DHT22;50868;24.150;-110.320;2023-06-14T06:16:13;26.30;79.60
64493;DHT22;50868;24.150;-110.320;2023-06-14T06:18:40;26.30;79.10
64493;DHT22;50868;24.150;-110.320;2023-06-14T06:21:07;26.50;77.90
64493;DHT22;50868;24.150;-110.320;2023-06-14T06:23:34;26.50;77.70
64493;DHT22;50868;24.150;-110.320;2023-06-14T06:26:02;26.30;78.60
64493;DHT22;50868;24.150;-110.320;2023-06-14T06:28:29;26.20;79.10
64493;DHT22;50868;24.150;-110.320;2023-06-14T06:30:56;26.20;79.10
64493;DHT22;50868;24.150;-110.320;2023-06-14T06:33:24;26.20;78.90
64493;DHT22;50868;24.150;-110.320;2023-06-14T06:35:51;26.20;79.50
64493;DHT22;50868;24.150;-110.320;2023-06-14T06:38:18;26.10;80.50
64493;DHT22;50868;24.150;-110.320;2023-06-14T06:40:46;26.10;79.20
64493;DHT22;50868;24.150;-110.320;2023-06-14T06:43:13;26.10;79.90
64493;DHT22;50868;24.150;-110.320;2023-06-14T06:45:43;26.10;79.40
64493;DHT22;50868;24.150;-110.320;2023-06-14T06:48:10;26.00;79.60
64493;DHT22;50868;24.150;-110.320;2023-06-14T06:50:37;26.00;79.40
64493;DHT22;50868;24.150;-110.320;2023-06-14T06:53:05;26.00;79.00
64493;DHT22;50868;24.150;-110.320;2023-06-14T06:55:33;26.20;78.40
64493;DHT22;50868;24.150;-110.320;2023-06-14T06:58:00;26.00;78.90
64493;DHT22;50868;24.150;-110.320;2023-06-14T07:00:27;26.00;78.50
64493;DHT22;50868;24.150;-110.320;2023-06-14T07:02:54;26.00;78.20
64493;DHT22;50868;24.150;-110.320;2023-06-14T07:05:21;26.00;77.90
64493;DHT22;50868;24.150;-110.320;2023-06-14T07:07:48;26.10;77.70
64493;DHT22;50868;24.150;-110.320;2023-06-14T07:10:16;26.10;77.70
64493;DHT22;50868;24.150;-110.320;2023-06-14T07:12:43;26.00;78.10
64493;DHT22;50868;24.150;-110.320;2023-06-14T07:15:12;26.00;78.20
64493;DHT22;50868;24.150;-110.320;2023-06-14T07:17:39;25.90;78.50
64493;DHT22;50868;24.150;-110.320;2023-06-14T07:20:07;25.90;78.20
64493;DHT22;50868;24.150;-110.320;2023-06-14T07:22:43;26.00;78.10
64493;DHT22;50868;24.150;-110.320;2023-06-14T07:25:12;26.10;77.20
64493;DHT22;50868;24.150;-110.320;2023-06-14T07:27:43;26.00;77.60
64493;DHT22;50868;24.150;-110.320;2023-06-14T07:30:11;25.90;78.20
64493;DHT22;50868;24.150;-110.320;2023-06-14T07:32:38;25.80;78.20
64493;DHT22;50868;24.150;-110.320;2023-06-14T07:35:06;25.90;77.60
64493;DHT22;50868;24.150;-110.320;2023-06-14T07:37:33;26.00;77.10
64493;DHT22;50868;24.150;-110.320;2023-06-14T07:40:01;26.10;76.60
64493;DHT22;50868;24.150;-110.320;2023-06-14T07:42:34;26.00;76.70
64493;DHT22;50868;24.150;-110.320;2023-06-14T07:45:05;26.00;76.30
64493;DHT22;50868;24.150;-110.320;2023-06-14T07:47:33;26.10;76.10
64493;DHT22;50868;24.150;-110.320;2023-06-14T07:50:00;26.00;76.00
64493;DHT22;50868;24.150;-110.320;2023-06-14T07:52:28;26.00;76.40
64493;DHT22;50868;24.150;-110.320;2023-06-14T07:54:55;25.80;76.70
64493;DHT22;50868;24.150;-110.320;2023-06-14T07:57:22;25.70;77.00
64493;DHT22;50868;24.150;-110.320;2023-06-14T07:59:49;25.70;77.10
64493;DHT22;50868;24.150;-110.320;2023-06-14T08:02:16;25.70;76.80
64493;DHT22;50868;24.150;-110.320;2023-06-14T08:04:44;25.70;76.70
64493;DHT22;50868;24.150;-110.320;2023-06-14T08:07:11;25.60;77.20
64493;DHT22;50868;24.150;-110.320;2023-06-14T08:09:39;25.50;77.30
64493;DHT22;50868;24.150;-110.320;2023-06-14T08:12:07;25.40;77.90
64493;DHT22;50868;24.150;-110.320;2023-06-14T08:14:36;25.40;77.70
64493;DHT22;50868;24.150;-110.320;2023-06-14T08:17:04;25.40;77.60
64493;DHT22;50868;24.150;-110.320;2023-06-14T08:19:31;25.40;77.70
64493;DHT22;50868;24.150;-110.320;2023-06-14T08:21:58;25.30;77.90
64493;DHT22;50868;24.150;-110.320;2023-06-14T08:24:26;25.30;78.00
64493;DHT22;50868;24.150;-110.320;2023-06-14T08:26:53;25.30;77.90
64493;DHT22;50868;24.150;-110.320;2023-06-14T08:29:20;25.30;77.60
64493;DHT22;50868;24.150;-110.320;2023-06-14T08:31:48;25.20;77.90
64493;DHT22;50868;24.150;-110.320;2023-06-14T08:34:15;25.20;78.20
64493;DHT22;50868;24.150;-110.320;2023-06-14T08:36:42;25.20;78.40
64493;DHT22;50868;24.150;-110.320;2023-06-14T08:39:09;25.10;78.70
64493;DHT22;50868;24.150;-110.320;2023-06-14T08:41:36;25.10;78.50
64493;DHT22;50868;24.150;-110.320;2023-06-14T08:44:04;25.10;78.30
64493;DHT22;50868;24.150;-110.320;2023-06-14T08:46:33;25.00;78.90
64493;DHT22;50868;24.150;-110.320;2023-06-14T08:49:03;25.00;79.00
64493;DHT22;50868;24.150;-110.320;2023-06-14T08:51:33;25.00;78.90
64493;DHT22;50868;24.150;-110.320;2023-06-14T08:54:03;25.00;78.60
64493;DHT22;50868;24.150;-110.320;2023-06-14T08:56:32;25.00;78.80
64493;DHT22;50868;24.150;-110.320;2023-06-14T08:59:01;25.00;78.40
64493;DHT22;50868;24.150;-110.320;2023-06-14T09:01:34;24.90;79.00
64493;DHT22;50868;24.150;-110.320;2023-06-14T09:04:01;25.00;78.40
64493;DHT22;50868;24.150;-110.320;2023-06-14T09:06:29;24.90;79.10
64493;DHT22;50868;24.150;-110.320;2023-06-14T09:08:56;25.00;78.50
64493;DHT22;50868;24.150;-110.320;2023-06-14T09:11:23;25.00;78.40
64493;DHT22;50868;24.150;-110.320;2023-06-14T09:13:52;24.90;78.50
64493;DHT22;50868;24.150;-110.320;2023-06-14T09:16:19;24.90;78.60
64493;DHT22;50868;24.150;-110.320;2023-06-14T09:18:47;24.80;78.70
64493;DHT22;50868;24.150;-110.320;2023-06-14T09:21:16;24.70;79.00
64493;DHT22;50868;24.150;-110.320;2023-06-14T09:23:45;24.60;78.90
64493;DHT22;50868;24.150;-110.320;2023-06-14T09:26:14;24.60;78.20
64493;DHT22;50868;24.150;-110.320;2023-06-14T09:28:42;24.70;78.10
64493;DHT22;50868;24.150;-110.320;2023-06-14T09:31:17;24.80;78.50
64493;DHT22;50868;24.150;-110.320;2023-06-14T09:33:47;24.60;78.10
64493;DHT22;50868;24.150;-110.320;2023-06-14T09:36:25;24.50;78.40
64493;DHT22;50868;24.150;-110.320;2023-06-14T09:39:12;24.50;78.40
64493;DHT22;50868;24.150;-110.320;2023-06-14T09:41:43;24.50;78.50
64493;DHT22;50868;24.150;-110.320;2023-06-14T09:44:11;24.30;78.50
64493;DHT22;50868;24.150;-110.320;2023-06-14T09:46:38;24.40;78.70
64493;DHT22;50868;24.150;-110.320;2023-06-14T09:49:06;24.40;78.50
64493;DHT22;50868;24.150;-110.320;2023-06-14T09:51:33;24.30;79.00
64493;DHT22;50868;24.150;-110.320;2023-06-14T09:54:03;24.20;79.10
64493;DHT22;50868;24.150;-110.320;2023-06-14T09:56:36;24.30;78.90
64493;DHT22;50868;24.150;-110.320;2023-06-14T09:59:06;24.30;78.60
64493;DHT22;50868;24.150;-110.320;2023-06-14T10:01:35;24.20;78.90
64493;DHT22;50868;24.150;-110.320;2023-06-14T10:04:06;24.20;79.10
64493;DHT22;50868;24.150;-110.320;2023-06-14T10:06:37;24.30;78.50
64493;DHT22;50868;24.150;-110.320;2023-06-14T10:09:04;24.20;79.10
64493;DHT22;50868;24.150;-110.320;2023-06-14T10:11:35;24.20;79.30
64493;DHT22;50868;24.150;-110.320;2023-06-14T10:14:05;24.10;79.30
64493;DHT22;50868;24.150;-110.320;2023-06-14T10:16:34;24.10;79.60
64493;DHT22;50868;24.150;-110.320;2023-06-14T10:19:19;24.10;79.80
64493;DHT22;50868;24.150;-110.320;2023-06-14T10:22:01;24.10;79.50
64493;DHT22;50868;24.150;-110.320;2023-06-14T10:24:49;24.20;79.00
64493;DHT22;50868;24.150;-110.320;2023-06-14T10:27:16;24.30;78.70
64493;DHT22;50868;24.150;-110.320;2023-06-14T10:32:28;24.10;79.80
64493;DHT22;50868;24.150;-110.320;2023-06-14T10:35:05;24.00;80.10
64493;DHT22;50868;24.150;-110.320;2023-06-14T10:37:33;24.00;79.80
64493;DHT22;50868;24.150;-110.320;2023-06-14T10:40:01;24.20;79.00
64493;DHT22;50868;24.150;-110.320;2023-06-14T10:42:32;24.10;79.10
64493;DHT22;50868;24.150;-110.320;2023-06-14T10:45:01;24.10;78.70
64493;DHT22;50868;24.150;-110.320;2023-06-14T10:47:35;24.30;77.10
64493;DHT22;50868;24.150;-110.320;2023-06-14T10:50:09;24.30;76.40
64493;DHT22;50868;24.150;-110.320;2023-06-14T10:52:41;24.30;76.70
64493;DHT22;50868;24.150;-110.320;2023-06-14T10:55:14;24.30;76.00
64493;DHT22;50868;24.150;-110.320;2023-06-14T10:57:43;24.20;76.60
64493;DHT22;50868;24.150;-110.320;2023-06-14T11:00:13;24.10;77.10
64493;DHT22;50868;24.150;-110.320;2023-06-14T11:05:28;24.00;77.80
64493;DHT22;50868;24.150;-110.320;2023-06-14T11:10:48;23.90;78.10
64493;DHT22;50868;24.150;-110.320;2023-06-14T11:13:16;23.80;78.20
64493;DHT22;50868;24.150;-110.320;2023-06-14T11:15:45;23.80;78.90
64493;DHT22;50868;24.150;-110.320;2023-06-14T11:18:19;23.70;79.20
64493;DHT22;50868;24.150;-110.320;2023-06-14T11:20:50;23.80;78.50
64493;DHT22;50868;24.150;-110.320;2023-06-14T11:23:17;23.70;78.70
64493;DHT22;50868;24.150;-110.320;2023-06-14T11:25:53;23.70;78.50
64493;DHT22;50868;24.150;-110.320;2023-06-14T11:28:20;23.50;78.70
64493;DHT22;50868;24.150;-110.320;2023-06-14T11:31:09;23.60;78.90
64493;DHT22;50868;24.150;-110.320;2023-06-14T11:33:36;23.60;78.70
64493;DHT22;50868;24.150;-110.320;2023-06-14T11:36:05;23.50;79.30
64493;DHT22;50868;24.150;-110.320;2023-06-14T11:38:37;23.50;79.60
64493;DHT22;50868;24.150;-110.320;2023-06-14T11:41:04;23.40;80.00
64493;DHT22;50868;24.150;-110.320;2023-06-14T11:43:32;23.50;79.80
64493;DHT22;50868;24.150;-110.320;2023-06-14T11:46:01;23.50;79.60
64493;DHT22;50868;24.150;-110.320;2023-06-14T11:48:38;23.50;79.70
64493;DHT22;50868;24.150;-110.320;2023-06-14T11:51:06;23.30;80.40
64493;DHT22;50868;24.150;-110.320;2023-06-14T11:53:33;23.30;80.60
64493;DHT22;50868;24.150;-110.320;2023-06-14T11:56:01;23.20;81.00
64493;DHT22;50868;24.150;-110.320;2023-06-14T11:58:29;23.20;81.00
64493;DHT22;50868;24.150;-110.320;2023-06-14T12:00:56;23.20;81.20
64493;DHT22;50868;24.150;-110.320;2023-06-14T12:03:25;23.10;81.50
64493;DHT22;50868;24.150;-110.320;2023-06-14T12:06:07;23.10;81.60
64493;DHT22;50868;24.150;-110.320;2023-06-14T12:08:39;23.00;82.30
64493;DHT22;50868;24.150;-110.320;2023-06-14T12:11:10;23.00;82.40
64493;DHT22;50868;24.150;-110.320;2023-06-14T12:13:41;23.00;83.10
64493;DHT22;50868;24.150;-110.320;2023-06-14T12:16:12;22.90;83.10
64493;DHT22;50868;24.150;-110.320;2023-06-14T12:18:40;22.70;83.60
64493;DHT22;50868;24.150;-110.320;2023-06-14T12:21:10;22.80;83.60
64493;DHT22;50868;24.150;-110.320;2023-06-14T12:23:46;22.70;84.20
64493;DHT22;50868;24.150;-110.320;2023-06-14T12:26:18;22.60;83.90
64493;DHT22;50868;24.150;-110.320;2023-06-14T12:28:47;22.60;84.20
64493;DHT22;50868;24.150;-110.320;2023-06-14T12:31:15;22.50;84.60
64493;DHT22;50868;24.150;-110.320;2023-06-14T12:33:43;22.40;85.50
64493;DHT22;50868;24.150;-110.320;2023-06-14T12:36:13;22.40;85.30
64493;DHT22;50868;24.150;-110.320;2023-06-14T12:38:40;22.40;85.50
64493;DHT22;50868;24.150;-110.320;2023-06-14T12:41:07;22.50;85.60
64493;DHT22;50868;24.150;-110.320;2023-06-14T12:43:35;22.50;85.60
64493;DHT22;50868;24.150;-110.320;2023-06-14T12:46:02;22.50;85.40
64493;DHT22;50868;24.150;-110.320;2023-06-14T12:48:29;22.50;85.30
64493;DHT22;50868;24.150;-110.320;2023-06-14T12:50:58;22.60;85.30
64493;DHT22;50868;24.150;-110.320;2023-06-14T12:53:25;22.50;85.60
64493;DHT22;50868;24.150;-110.320;2023-06-14T12:55:52;22.50;85.80
64493;DHT22;50868;24.150;-110.320;2023-06-14T12:58:19;22.50;86.00
64493;DHT22;50868;24.150;-110.320;2023-06-14T13:00:47;22.60;85.80
64493;DHT22;50868;24.150;-110.320;2023-06-14T13:03:14;22.60;85.80
64493;DHT22;50868;24.150;-110.320;2023-06-14T13:05:41;22.70;85.70
64493;DHT22;50868;24.150;-110.320;2023-06-14T13:08:09;22.70;86.00
64493;DHT22;50868;24.150;-110.320;2023-06-14T13:10:36;22.90;85.00
64493;DHT22;50868;24.150;-110.320;2023-06-14T13:13:03;22.80;85.20
64493;DHT22;50868;24.150;-110.320;2023-06-14T13:15:31;22.80;85.20
64493;DHT22;50868;24.150;-110.320;2023-06-14T13:17:58;22.80;85.20
64493;DHT22;50868;24.150;-110.320;2023-06-14T13:20:25;22.80;84.70
64493;DHT22;50868;24.150;-110.320;2023-06-14T13:22:52;22.80;85.00
64493;DHT22;50868;24.150;-110.320;2023-06-14T13:25:19;22.90;84.60
64493;DHT22;50868;24.150;-110.320;2023-06-14T13:27:46;23.00;84.50
64493;DHT22;50868;24.150;-110.320;2023-06-14T13:30:13;23.10;84.50
64493;DHT22;50868;24.150;-110.320;2023-06-14T13:32:40;23.10;84.10
64493;DHT22;50868;24.150;-110.320;2023-06-14T13:35:08;23.20;84.70
64493;DHT22;50868;24.150;-110.320;2023-06-14T13:37:35;23.30;84.80
64493;DHT22;50868;24.150;-110.320;2023-06-14T13:40:02;23.30;83.60
64493;DHT22;50868;24.150;-110.320;2023-06-14T13:42:29;23.30;84.30
64493;DHT22;50868;24.150;-110.320;2023-06-14T13:44:59;23.40;84.00
64493;DHT22;50868;24.150;-110.320;2023-06-14T13:47:26;23.50;83.30
64493;DHT22;50868;24.150;-110.320;2023-06-14T13:49:53;23.60;83.40
64493;DHT22;50868;24.150;-110.320;2023-06-14T13:52:20;23.70;83.50
64493;DHT22;50868;24.150;-110.320;2023-06-14T13:54:47;23.80;83.20
64493;DHT22;50868;24.150;-110.320;2023-06-14T13:57:15;23.90;82.20
64493;DHT22;50868;24.150;-110.320;2023-06-14T13:59:42;23.90;80.70
64493;DHT22;50868;24.150;-110.320;2023-06-14T14:02:13;24.00;79.90
64493;DHT22;50868;24.150;-110.320;2023-06-14T14:04:41;24.20;79.20
64493;DHT22;50868;24.150;-110.320;2023-06-14T14:07:08;24.20;78.50
64493;DHT22;50868;24.150;-110.320;2023-06-14T14:09:35;24.30;77.70
64493;DHT22;50868;24.150;-110.320;2023-06-14T14:12:04;24.50;77.40
64493;DHT22;50868;24.150;-110.320;2023-06-14T14:14:35;24.50;76.70
64493;DHT22;50868;24.150;-110.320;2023-06-14T14:17:03;24.60;75.20
64493;DHT22;50868;24.150;-110.320;2023-06-14T14:19:31;24.80;73.70
64493;DHT22;50868;24.150;-110.320;2023-06-14T14:21:58;24.80;72.60
64493;DHT22;50868;24.150;-110.320;2023-06-14T14:24:25;24.90;72.30
64493;DHT22;50868;24.150;-110.320;2023-06-14T14:26:53;25.10;73.10
64493;DHT22;50868;24.150;-110.320;2023-06-14T14:29:20;25.20;72.10
64493;DHT22;50868;24.150;-110.320;2023-06-14T14:31:48;25.30;71.80
64493;DHT22;50868;24.150;-110.320;2023-06-14T14:34:15;25.40;72.10
64493;DHT22;50868;24.150;-110.320;2023-06-14T14:36:42;25.60;71.20
64493;DHT22;50868;24.150;-110.320;2023-06-14T14:39:10;25.70;70.10
64493;DHT22;50868;24.150;-110.320;2023-06-14T14:41:38;25.90;68.00
64493;DHT22;50868;24.150;-110.320;2023-06-14T14:44:06;26.10;67.80
64493;DHT22;50868;24.150;-110.320;2023-06-14T14:46:33;26.10;68.60
64493;DHT22;50868;24.150;-110.320;2023-06-14T14:49:00;26.30;66.80
64493;DHT22;50868;24.150;-110.320;2023-06-14T14:51:27;26.20;68.40
64493;DHT22;50868;24.150;-110.320;2023-06-14T14:53:55;26.20;69.40
64493;DHT22;50868;24.150;-110.320;2023-06-14T14:56:23;26.20;68.20
64493;DHT22;50868;24.150;-110.320;2023-06-14T14:58:50;26.00;69.10
64493;DHT22;50868;24.150;-110.320;2023-06-14T15:01:17;25.90;76.80
64493;DHT22;50868;24.150;-110.320;2023-06-14T15:03:44;25.70;77.40
64493;DHT22;50868;24.150;-110.320;2023-06-14T15:06:12;25.50;75.40
64493;DHT22;50868;24.150;-110.320;2023-06-14T15:08:39;25.60;75.80